Time;durP1;ratioP1;P1;durP2;ratioP2;P2;SDS_P1;SDS_P2;PMS_P1;PMS_P2;Temp;Humidity;BMP_temperature;BMP_pressure;BME280_temperature;BME280_humidity;BME280_pressure;Samples;Min_cycle;Max_cycle;Signal;HPM_P1;HPM_P2
2023/11/18 00:01:43;;;;;;;82.15;48.85;;;;;;;;;;4891648;29;20048;-82
2023/11/18 00:04:16;;;;;;;79.07;48.97;;;;;;;;;;4922775;29;20059;-83
2023/11/18 00:06:48;;;;;;;85.03;49.15;;;;;;;;;;4922109;29;20055;-82
2023/11/18 00:09:19;;;;;;;82.53;49.40;;;;;;;;;;4939114;29;20054;-81
2023/11/18 00:11:50;;;;;;;83.13;52.58;;;;;;;;;;4917799;29;20386;-84
2023/11/18 00:14:31;;;;;;;79.65;48.33;;;;;;;;;;4937708;29;20062;-81
2023/11/18 00:43:03;;;;;;;79.85;48.55;;;;;;;;;;6024974;23;19932;31
2023/11/18 00:59:33;;;;;;;82.00;48.60;;;;;;;;;;5000946;23;20078;-81
2023/11/18 01:02:05;;;;;;;82.10;49.03;;;;;;;;;;4921736;29;20063;-81
2023/11/18 01:04:37;;;;;;;78.90;47.70;;;;;;;;;;4921831;29;20418;-82
2023/11/18 01:07:09;;;;;;;79.78;47.10;;;;;;;;;;4936577;29;20058;-82
2023/11/18 01:09:40;;;;;;;83.13;50.92;;;;;;;;;;4921253;29;20048;-83
2023/11/18 01:12:13;;;;;;;85.30;50.78;;;;;;;;;;4937634;29;20059;-82
2023/11/18 01:14:46;;;;;;;81.57;49.30;;;;;;;;;;4935881;29;20055;-84
2023/11/18 01:17:22;;;;;;;85.78;54.30;;;;;;;;;;4936753;29;20411;-85
2023/11/18 01:19:58;;;;;;;80.60;50.60;;;;;;;;;;4935850;29;20051;-83
2023/11/18 01:22:30;;;;;;;80.22;49.47;;;;;;;;;;4938753;29;20517;-83
2023/11/18 01:25:02;;;;;;;82.15;49.88;;;;;;;;;;4922588;29;20134;-84
2023/11/18 01:27:34;;;;;;;85.00;50.33;;;;;;;;;;4905010;29;20422;-84
2023/11/18 01:30:07;;;;;;;82.05;49.97;;;;;;;;;;4919199;29;20146;-83
2023/11/18 01:32:42;;;;;;;83.90;51.80;;;;;;;;;;4902854;29;20391;-83
2023/11/18 01:35:13;;;;;;;81.95;50.08;;;;;;;;;;4903569;29;20058;-83
2023/11/18 01:37:44;;;;;;;81.70;50.33;;;;;;;;;;4918928;29;20052;-84
2023/11/18 01:40:15;;;;;;;81.95;50.47;;;;;;;;;;4918465;29;20051;-84
2023/11/18 01:42:47;;;;;;;84.90;50.83;;;;;;;;;;4919477;29;20517;-84
2023/11/18 01:45:17;;;;;;;86.80;52.58;;;;;;;;;;4918159;29;20055;-84
2023/11/18 01:47:48;;;;;;;83.78;50.10;;;;;;;;;;4918203;29;20052;-83
2023/11/18 01:50:20;;;;;;;82.25;51.58;;;;;;;;;;4935992;29;20047;-83
2023/11/18 01:52:53;;;;;;;84.50;53.63;;;;;;;;;;4935676;29;20525;-84
2023/11/18 01:55:23;;;;;;;90.18;56.90;;;;;;;;;;4918995;29;20055;-83
2023/11/18 01:57:56;;;;;;;85.13;51.47;;;;;;;;;;4918374;29;20058;-85
2023/11/18 02:00:27;;;;;;;88.57;53.00;;;;;;;;;;4918105;29;20518;-84
2023/11/18 02:02:59;;;;;;;87.95;53.63;;;;;;;;;;4917837;29;20051;-85
2023/11/18 02:05:29;;;;;;;95.15;54.33;;;;;;;;;;4935572;29;20039;-83
2023/11/18 02:08:09;;;;;;;88.28;54.28;;;;;;;;;;4918229;29;20047;-84
2023/11/18 02:10:58;;;;;;;89.25;55.70;;;;;;;;;;4935395;29;20055;-84
2023/11/18 02:13:34;;;;;;;87.45;57.03;;;;;;;;;;4919048;29;20379;-83
2023/11/18 02:16:07;;;;;;;88.88;58.00;;;;;;;;;;4917883;29;20383;-83
2023/11/18 02:18:42;;;;;;;90.85;55.33;;;;;;;;;;4917722;29;20067;-84
2023/11/18 02:21:14;;;;;;;91.57;54.92;;;;;;;;;;4917710;29;20055;-83
2023/11/18 02:23:45;;;;;;;87.65;54.25;;;;;;;;;;4917865;29;20062;-83
2023/11/18 02:26:25;;;;;;;88.90;52.92;;;;;;;;;;4918758;29;20048;-86
2023/11/18 02:28:56;;;;;;;93.78;55.13;;;;;;;;;;4935753;29;20047;-84
2023/11/18 02:31:37;;;;;;;95.30;56.05;;;;;;;;;;4917310;29;20054;-85
2023/11/18 02:34:20;;;;;;;90.00;55.78;;;;;;;;;;4918222;29;20529;-84
2023/11/18 02:36:51;;;;;;;98.40;55.85;;;;;;;;;;4917669;29;20059;-85
2023/11/18 02:39:33;;;;;;;92.55;55.45;;;;;;;;;;4917474;29;20055;-83
2023/11/18 02:42:07;;;;;;;95.10;59.20;;;;;;;;;;4917842;29;20533;-85
2023/11/18 02:44:40;;;;;;;96.95;57.45;;;;;;;;;;4928202;29;20044;-84
2023/11/18 02:47:10;;;;;;;92.93;58.88;;;;;;;;;;4918398;29;20043;-83
2023/11/18 02:49:40;;;;;;;97.25;59.50;;;;;;;;;;4922632;29;20051;-83
2023/11/18 02:52:13;;;;;;;93.53;58.65;;;;;;;;;;4898982;29;20067;-83
2023/11/18 02:54:44;;;;;;;98.88;57.92;;;;;;;;;;4915875;29;20060;-86
2023/11/18 02:57:14;;;;;;;99.50;59.53;;;;;;;;;;4898207;29;20052;-86
2023/11/18 02:59:46;;;;;;;96.57;60.33;;;;;;;;;;4897783;29;20060;-86
2023/11/18 03:02:16;;;;;;;;;;;;;;;;;;4898672;29;20068;-87
2023/11/18 03:04:46;;;;;;;95.07;57.58;;;;;;;;;;4925886;29;19923;-84
2023/11/18 03:07:16;;;;;;;92.95;55.78;;;;;;;;;;4924910;29;20047;-86
2023/11/18 03:09:46;;;;;;;90.00;54.10;;;;;;;;;;4900043;29;20056;-85
2023/11/18 03:12:16;;;;;;;91.18;55.67;;;;;;;;;;4908164;29;20407;-87
2023/11/18 03:14:46;;;;;;;90.32;54.05;;;;;;;;;;4924252;29;20044;-85
2023/11/18 03:17:16;;;;;;;90.72;54.15;;;;;;;;;;4925391;29;20043;-84
2023/11/18 03:19:47;;;;;;;92.25;53.38;;;;;;;;;;4923932;29;20052;-83
2023/11/18 03:22:18;;;;;;;95.00;53.78;;;;;;;;;;4925187;29;20510;-82
2023/11/18 03:24:49;;;;;;;93.53;57.90;;;;;;;;;;4907806;29;20418;-85
2023/11/18 03:27:21;;;;;;;89.13;52.75;;;;;;;;;;4924193;29;20036;-83
2023/11/18 03:29:54;;;;;;;97.45;53.63;;;;;;;;;;4931701;29;20039;-85
2023/11/18 03:32:24;;;;;;;91.85;53.85;;;;;;;;;;4934715;29;20047;-83
2023/11/18 03:34:54;;;;;;;94.55;54.20;;;;;;;;;;4896179;29;20044;-84
2023/11/18 03:37:26;;;;;;;92.15;55.88;;;;;;;;;;4907194;29;20043;-84
2023/11/18 03:39:56;;;;;;;94.65;54.22;;;;;;;;;;4926027;29;20110;-88
2023/11/18 03:42:28;;;;;;;97.25;56.03;;;;;;;;;;4923492;29;20039;-88
2023/11/18 03:44:59;;;;;;;96.20;56.97;;;;;;;;;;4907598;29;20048;-84
2023/11/18 03:47:30;;;;;;;92.05;56.00;;;;;;;;;;4908104;29;20063;-86
2023/11/18 03:50:00;;;;;;;91.00;55.28;;;;;;;;;;4924216;29;20047;-86
2023/11/18 03:52:31;;;;;;;94.43;56.63;;;;;;;;;;4905921;29;20408;-83
2023/11/18 03:55:04;;;;;;;100.32;57.45;;;;;;;;;;4907960;29;20406;-85
2023/11/18 03:57:35;;;;;;;96.55;57.47;;;;;;;;;;4923657;29;20046;-86
2023/11/18 04:00:06;;;;;;;99.45;58.85;;;;;;;;;;4924061;29;20051;-85
2023/11/18 04:02:40;;;;;;;96.35;57.38;;;;;;;;;;4898320;29;20043;-83
2023/11/18 04:05:11;;;;;;;95.57;55.30;;;;;;;;;;4921910;29;20040;-83
2023/11/18 04:07:41;;;;;;;100.38;58.15;;;;;;;;;;4906237;29;20456;-81
2023/11/18 04:10:12;;;;;;;99.03;56.70;;;;;;;;;;4901244;29;20040;-83
2023/11/18 04:12:46;;;;;;;94.28;55.65;;;;;;;;;;4898970;29;20056;-83
2023/11/18 04:15:16;;;;;;;97.60;56.47;;;;;;;;;;4899008;29;20176;-83
2023/11/18 04:17:46;;;;;;;96.72;56.50;;;;;;;;;;4915571;29;20052;-83
2023/11/18 04:20:17;;;;;;;95.97;57.60;;;;;;;;;;4898365;29;20052;-84
2023/11/18 04:22:48;;;;;;;90.97;56.55;;;;;;;;;;4904179;29;20059;-85
2023/11/18 04:25:18;;;;;;;95.95;56.40;;;;;;;;;;4932664;29;20052;-83
2023/11/18 04:27:48;;;;;;;97.43;57.08;;;;;;;;;;4917353;29;20051;-82
2023/11/18 04:30:19;;;;;;;101.32;57.47;;;;;;;;;;4954204;29;20408;-85
2023/11/18 04:33:00;;;;;;;91.53;55.92;;;;;;;;;;4957816;29;20047;-83
2023/11/18 04:35:31;;;;;;;91.10;55.60;;;;;;;;;;4957952;29;20062;-85
2023/11/18 04:38:03;;;;;;;96.50;55.33;;;;;;;;;;4958321;29;20043;-82
2023/11/18 04:40:34;;;;;;;91.13;55.78;;;;;;;;;;4958017;29;20047;-87
2023/11/18 04:43:05;;;;;;;88.78;53.65;;;;;;;;;;4957991;29;20043;-86
2023/11/18 04:45:36;;;;;;;91.68;54.40;;;;;;;;;;4939550;29;20074;-84
2023/11/18 04:48:06;;;;;;;90.15;54.30;;;;;;;;;;4957865;29;20039;-84
2023/11/18 04:50:36;;;;;;;87.95;52.35;;;;;;;;;;4932668;29;20058;-82
2023/11/18 04:53:10;;;;;;;86.07;52.10;;;;;;;;;;4957458;29;20058;-84
2023/11/18 04:55:41;;;;;;;90.18;52.65;;;;;;;;;;4939995;29;20390;-84
2023/11/18 04:58:11;;;;;;;85.57;50.95;;;;;;;;;;4956865;29;20052;-81
2023/11/18 05:00:42;;;;;;;89.20;50.80;;;;;;;;;;4941147;29;20058;-83
2023/11/18 05:03:14;;;;;;;90.78;51.60;;;;;;;;;;4957356;29;20405;-82
2023/11/18 05:05:48;;;;;;;86.80;50.28;;;;;;;;;;4939634;29;20059;-84
2023/11/18 05:08:20;;;;;;;85.10;49.42;;;;;;;;;;4941012;29;20067;-84
2023/11/18 05:10:51;;;;;;;87.55;47.70;;;;;;;;;;4940578;29;20102;-84
2023/11/18 05:13:21;;;;;;;88.32;48.40;;;;;;;;;;4957292;29;20382;-84
2023/11/18 05:15:54;;;;;;;79.88;45.92;;;;;;;;;;4956811;29;20051;-80
2023/11/18 05:18:24;;;;;;;77.13;44.65;;;;;;;;;;4938934;29;20517;-85
2023/11/18 05:20:54;;;;;;;78.00;45.25;;;;;;;;;;4939360;29;20051;-81
2023/11/18 05:23:24;;;;;;;80.22;45.80;;;;;;;;;;4956996;29;20493;-82
2023/11/18 05:25:55;;;;;;;78.18;46.65;;;;;;;;;;4939686;29;20062;-81
2023/11/18 05:28:26;;;;;;;79.93;44.95;;;;;;;;;;4956315;29;20505;-84
2023/11/18 05:31:01;;;;;;;79.20;47.05;;;;;;;;;;4956483;29;20043;-82
2023/11/18 05:33:34;;;;;;;77.82;44.72;;;;;;;;;;4956574;29;20414;-82
2023/11/18 05:36:05;;;;;;;76.45;44.75;;;;;;;;;;4939486;29;20506;-82
2023/11/18 05:38:38;;;;;;;80.30;45.85;;;;;;;;;;4949210;29;20058;-84
2023/11/18 05:41:16;;;;;;;81.00;45.63;;;;;;;;;;4939420;29;20051;-82
2023/11/18 05:43:51;;;;;;;76.40;45.38;;;;;;;;;;4956494;29;20051;-81
2023/11/18 05:46:24;;;;;;;77.10;45.83;;;;;;;;;;4938418;29;20054;-83
2023/11/18 05:48:55;;;;;;;81.00;46.25;;;;;;;;;;4956638;29;20047;-83
2023/11/18 05:51:28;;;;;;;75.82;44.85;;;;;;;;;;4956483;29;20383;-81
2023/11/18 05:54:01;;;;;;;77.15;46.20;;;;;;;;;;4939003;29;20059;-82
2023/11/18 05:56:31;;;;;;;76.80;44.92;;;;;;;;;;4938723;29;20066;-84
2023/11/18 05:59:03;;;;;;;80.72;46.90;;;;;;;;;;4956013;29;20051;-82
2023/11/18 06:01:33;;;;;;;77.55;45.45;;;;;;;;;;4956376;29;20051;-85
2023/11/18 06:04:08;;;;;;;77.28;43.97;;;;;;;;;;4938814;29;20051;-82
2023/11/18 06:06:38;;;;;;;77.00;44.05;;;;;;;;;;4939518;29;20054;-83
2023/11/18 06:09:17;;;;;;;77.32;45.22;;;;;;;;;;4955978;29;20050;-84
2023/11/18 06:11:49;;;;;;;80.53;48.78;;;;;;;;;;4939306;29;20375;-83
2023/11/18 06:14:20;;;;;;;75.07;43.60;;;;;;;;;;4938002;29;20498;-81
2023/11/18 06:16:50;;;;;;;74.07;43.03;;;;;;;;;;4956115;29;20054;-83
2023/11/18 06:19:21;;;;;;;72.45;42.60;;;;;;;;;;4955886;29;20047;-83
2023/11/18 06:21:51;;;;;;;71.65;40.80;;;;;;;;;;4956271;29;20051;-84
2023/11/18 06:24:21;;;;;;;75.55;45.00;;;;;;;;;;4938442;29;20482;-83
2023/11/18 06:26:51;;;;;;;75.55;43.53;;;;;;;;;;4938796;29;20074;-81
2023/11/18 06:29:23;;;;;;;72.82;41.80;;;;;;;;;;4955655;29;20050;-84
2023/11/18 06:31:54;;;;;;;71.22;42.90;;;;;;;;;;4955758;29;20047;-83
2023/11/18 06:34:23;;;;;;;75.88;43.85;;;;;;;;;;4922899;29;20055;-84
2023/11/18 06:36:56;;;;;;;71.75;42.95;;;;;;;;;;4954582;29;20481;-84
2023/11/18 06:39:29;;;;;;;70.93;41.85;;;;;;;;;;4928562;29;20043;-83
2023/11/18 06:42:02;;;;;;;77.78;43.30;;;;;;;;;;4918612;29;20071;-85
2023/11/18 06:44:33;;;;;;;75.70;42.28;;;;;;;;;;4936273;29;20047;-83
2023/11/18 06:47:06;;;;;;;71.72;42.55;;;;;;;;;;4935870;29;20048;-86
2023/11/18 06:49:36;;;;;;;72.07;41.90;;;;;;;;;;4936126;29;20048;-83
2023/11/18 06:52:09;;;;;;;73.13;41.63;;;;;;;;;;4919708;29;20055;-85
2023/11/18 06:54:43;;;;;;;71.95;43.08;;;;;;;;;;4936510;29;20055;-85
2023/11/18 06:57:14;;;;;;;74.07;44.67;;;;;;;;;;4918999;29;20047;-83
2023/11/18 06:59:44;;;;;;;70.43;42.35;;;;;;;;;;4917087;29;20048;-83
2023/11/18 07:02:15;;;;;;;73.70;42.50;;;;;;;;;;4917021;29;20044;-83
2023/11/18 07:04:45;;;;;;;75.50;42.85;;;;;;;;;;4899940;29;20059;-86
2023/11/18 07:07:15;;;;;;;72.57;42.97;;;;;;;;;;4900919;29;20048;-86
2023/11/18 07:09:45;;;;;;;73.63;42.90;;;;;;;;;;4917892;29;20071;-87
2023/11/18 07:12:19;;;;;;;72.50;42.35;;;;;;;;;;4917327;29;20403;-85
2023/11/18 07:14:49;;;;;;;75.15;46.13;;;;;;;;;;4900672;29;20395;-84
2023/11/18 07:17:21;;;;;;;;;;;;;;;;;;4917844;29;20117;-82
2023/11/18 07:19:51;;;;;;;68.47;39.60;;;;;;;;;;4900034;29;19930;-84
2023/11/18 07:22:24;;;;;;;78.50;45.13;;;;;;;;;;4916946;29;20376;-86
2023/11/18 07:24:55;;;;;;;67.93;41.05;;;;;;;;;;4900512;29;20048;-83
2023/11/18 07:27:28;;;;;;;70.07;39.72;;;;;;;;;;4915463;29;20052;-87
2023/11/18 07:29:59;;;;;;;70.88;39.03;;;;;;;;;;4916094;29;20052;-84
2023/11/18 07:32:30;;;;;;;67.18;40.22;;;;;;;;;;4899570;29;20071;-83
2023/11/18 07:35:00;;;;;;;71.25;43.20;;;;;;;;;;4917557;29;20380;-83
2023/11/18 07:37:32;;;;;;;67.15;39.78;;;;;;;;;;4916614;29;20059;-86
2023/11/18 07:40:04;;;;;;;68.88;40.53;;;;;;;;;;4916980;29;20036;-85
2023/11/18 07:42:34;;;;;;;65.78;39.00;;;;;;;;;;4884373;29;20601;-82
2023/11/18 07:45:17;;;;;;;64.18;37.30;;;;;;;;;;4884400;29;20411;-84
2023/11/18 07:47:47;;;;;;;72.38;38.80;;;;;;;;;;4918559;29;20048;-82
2023/11/18 07:50:22;;;;;;;65.53;39.13;;;;;;;;;;4924468;29;20063;-84
2023/11/18 07:52:52;;;;;;;65.43;37.60;;;;;;;;;;4909178;29;20060;-82
2023/11/18 07:55:23;;;;;;;68.07;38.45;;;;;;;;;;4910909;29;20056;-84
2023/11/18 07:57:53;;;;;;;60.58;35.63;;;;;;;;;;4928857;29;20499;-82
2023/11/18 08:00:24;;;;;;;67.07;39.15;;;;;;;;;;4959686;29;20036;-86
2023/11/18 08:02:55;;;;;;;;;;;;;;;;;;4963609;29;20027;-82
2023/11/18 08:05:25;;;;;;;67.25;38.38;;;;;;;;;;4950717;29;19923;-83
2023/11/18 08:07:55;;;;;;;60.13;36.20;;;;;;;;;;4939887;29;20043;-81
2023/11/18 08:10:25;;;;;;;68.68;37.72;;;;;;;;;;4945426;29;20023;-82
2023/11/18 08:12:55;;;;;;;65.85;37.40;;;;;;;;;;4940668;29;20043;-83
2023/11/18 08:15:29;;;;;;;63.88;34.60;;;;;;;;;;4907113;29;20430;-83
2023/11/18 08:17:59;;;;;;;61.80;34.95;;;;;;;;;;4906566;29;20059;-83
2023/11/18 08:20:30;;;;;;;65.45;40.10;;;;;;;;;;4939517;29;20397;-83
2023/11/18 08:23:00;;;;;;;66.25;37.05;;;;;;;;;;4923184;29;20411;-86
2023/11/18 08:25:33;;;;;;;60.92;35.58;;;;;;;;;;4940364;29;20047;-83
2023/11/18 08:28:09;;;;;;;63.20;36.30;;;;;;;;;;4923876;29;20048;-86
2023/11/18 08:30:56;;;;;;;62.63;36.28;;;;;;;;;;4922438;29;20569;-85
2023/11/18 08:33:30;;;;;;;65.53;38.35;;;;;;;;;;4921956;29;20371;-81
2023/11/18 08:36:01;;;;;;;60.60;34.60;;;;;;;;;;4922006;29;20367;-81
2023/11/18 08:38:32;;;;;;;65.10;34.58;;;;;;;;;;4921076;29;20367;-82
2023/11/18 08:41:03;;;;;;;62.83;34.85;;;;;;;;;;4937974;29;20051;-82
2023/11/18 08:43:35;;;;;;;64.28;36.78;;;;;;;;;;4938810;29;20048;-84
2023/11/18 08:46:07;;;;;;;60.70;35.63;;;;;;;;;;4938504;29;20054;-82
2023/11/18 08:48:37;;;;;;;64.05;34.70;;;;;;;;;;4921688;29;20052;-85
2023/11/18 08:51:09;;;;;;;60.90;35.67;;;;;;;;;;4938806;29;20043;-82
2023/11/18 08:53:42;;;;;;;60.33;35.30;;;;;;;;;;4923364;29;20048;-85
2023/11/18 08:56:15;;;;;;;59.00;34.35;;;;;;;;;;4922339;29;20047;-86
2023/11/18 08:58:48;;;;;;;63.05;34.95;;;;;;;;;;4921808;29;20067;-84
2023/11/18 09:01:23;;;;;;;63.42;35.22;;;;;;;;;;4939596;29;20529;-84
2023/11/18 09:03:53;;;;;;;59.97;35.35;;;;;;;;;;4922317;29;20051;-84
2023/11/18 09:06:28;;;;;;;59.30;35.08;;;;;;;;;;4905951;29;20059;-83
2023/11/18 09:08:59;;;;;;;58.75;35.45;;;;;;;;;;4939577;29;20055;-85
2023/11/18 09:11:32;;;;;;;57.40;35.45;;;;;;;;;;4938973;29;20051;-83
2023/11/18 09:14:03;;;;;;;64.07;37.53;;;;;;;;;;4921238;29;20059;-85
2023/11/18 09:16:39;;;;;;;63.00;37.38;;;;;;;;;;4921866;29;20051;-85
2023/11/18 09:19:10;;;;;;;67.05;40.35;;;;;;;;;;4938140;29;20048;-84
2023/11/18 09:21:41;;;;;;;69.05;40.42;;;;;;;;;;4921577;29;20043;-84
2023/11/18 09:24:13;;;;;;;71.28;41.33;;;;;;;;;;4937643;29;20064;-85
2023/11/18 09:26:47;;;;;;;68.90;40.88;;;;;;;;;;4938017;29;20064;-85
2023/11/18 09:29:18;;;;;;;77.82;44.80;;;;;;;;;;4919926;29;20051;-85
2023/11/18 09:31:48;;;;;;;70.07;41.83;;;;;;;;;;4921182;29;20054;-83
2023/11/18 09:34:28;;;;;;;71.35;41.92;;;;;;;;;;4937231;29;20058;-83
2023/11/18 09:36:58;;;;;;;71.47;41.97;;;;;;;;;;4919563;29;20056;-83
2023/11/18 09:39:37;;;;;;;72.95;41.63;;;;;;;;;;4937296;29;20051;-83
2023/11/18 09:42:08;;;;;;;69.70;42.58;;;;;;;;;;4937402;29;20052;-84
2023/11/18 09:44:38;;;;;;;67.53;41.95;;;;;;;;;;4937510;29;20051;-83
2023/11/18 09:47:10;;;;;;;68.93;42.63;;;;;;;;;;4921063;29;20051;-83
2023/11/18 09:49:45;;;;;;;70.30;42.22;;;;;;;;;;4937983;29;20059;-83
2023/11/18 09:52:21;;;;;;;67.10;40.28;;;;;;;;;;4937389;29;20046;-84
2023/11/18 09:55:14;;;;;;;68.50;41.42;;;;;;;;;;4937285;29;20055;-84
2023/11/18 09:57:57;;;;;;;70.85;42.25;;;;;;;;;;4919403;29;20132;-87
2023/11/18 10:00:32;;;;;;;71.70;41.63;;;;;;;;;;4937159;29;20040;-87
2023/11/18 10:03:08;;;;;;;67.15;41.33;;;;;;;;;;4937068;29;20050;-84
2023/11/18 10:05:42;;;;;;;68.40;41.75;;;;;;;;;;4912093;29;20048;-86
2023/11/18 10:08:16;;;;;;;68.38;41.03;;;;;;;;;;4937179;29;20048;-85
2023/11/18 10:10:47;;;;;;;67.47;40.75;;;;;;;;;;4937465;29;20112;-86
2023/11/18 10:13:22;;;;;;;66.68;39.72;;;;;;;;;;4937180;29;20046;-88
2023/11/18 10:15:53;;;;;;;77.90;41.15;;;;;;;;;;4936570;29;20050;-86
2023/11/18 10:18:24;;;;;;;69.95;41.90;;;;;;;;;;4919570;29;20059;-86
2023/11/18 10:20:54;;;;;;;68.78;41.25;;;;;;;;;;4937017;29;20054;-90
2023/11/18 10:23:27;;;;;;;68.15;40.67;;;;;;;;;;4949331;28;20043;-85
2023/11/18 10:26:00;;;;;;;70.47;40.70;;;;;;;;;;4917460;29;20051;-87
2023/11/18 10:28:32;;;;;;;66.20;39.92;;;;;;;;;;4934611;29;20058;-87
2023/11/18 10:31:09;;;;;;;68.22;40.10;;;;;;;;;;4937194;29;20055;-84
2023/11/18 10:33:43;;;;;;;63.60;39.70;;;;;;;;;;4940900;29;20047;-86
2023/11/18 10:36:23;;;;;;;69.05;40.28;;;;;;;;;;4931187;29;20051;-86
2023/11/18 10:39:31;;;;;;;70.22;42.47;;;;;;;;;;4921270;29;20047;-89
2023/11/18 10:42:02;;;;;;;79.20;45.33;;;;;;;;;;4897856;29;20063;-86
2023/11/18 10:45:02;;;;;;;74.68;42.60;;;;;;;;;;4882858;29;20558;-85
2023/11/18 10:47:38;;;;;;;68.97;39.10;;;;;;;;;;4898029;29;20052;-85
2023/11/18 10:50:12;;;;;;;68.28;38.08;;;;;;;;;;4902246;29;20055;-87
2023/11/18 10:52:46;;;;;;;72.47;43.15;;;;;;;;;;4885979;29;20063;-81
2023/11/18 10:55:19;;;;;;;75.70;42.25;;;;;;;;;;4908833;29;20052;-85
2023/11/18 11:01:11;;;;;;;71.15;39.80;;;;;;;;;;4915721;29;20044;-85
2023/11/18 11:03:58;;;;;;;71.05;42.17;;;;;;;;;;4917134;29;20048;-87
2023/11/18 11:06:36;;;;;;;69.43;42.40;;;;;;;;;;4903926;29;20063;-86
2023/11/18 11:09:16;;;;;;;92.63;50.95;;;;;;;;;;4895462;29;20056;-86
2023/11/18 11:12:16;;;;;;;75.32;43.55;;;;;;;;;;4910297;29;20063;-85
2023/11/18 11:14:56;;;;;;;71.60;42.40;;;;;;;;;;4946530;29;20169;-84
2023/11/18 11:17:33;;;;;;;72.50;41.97;;;;;;;;;;4935002;29;20050;-82
2023/11/18 11:20:17;;;;;;;73.88;42.08;;;;;;;;;;4935595;29;20122;-86
2023/11/18 11:23:07;;;;;;;75.10;41.58;;;;;;;;;;4935463;29;20055;-87
2023/11/18 11:25:38;;;;;;;76.65;44.17;;;;;;;;;;4917285;29;20051;-88
2023/11/18 11:28:22;;;;;;;75.03;43.72;;;;;;;;;;4903562;29;20115;-88
2023/11/18 11:31:15;;;;;;;75.88;41.88;;;;;;;;;;4917165;29;20052;-82
2023/11/18 11:34:07;;;;;;;74.03;43.72;;;;;;;;;;4919132;29;20406;-83
2023/11/18 11:36:48;;;;;;;75.03;44.38;;;;;;;;;;4921960;29;20048;-81
2023/11/18 11:39:26;;;;;;;75.25;42.42;;;;;;;;;;4921972;29;20048;-82
2023/11/18 11:41:58;;;;;;;68.22;37.17;;;;;;;;;;4940029;29;20368;-82
2023/11/18 11:44:31;;;;;;;;;;;;;;;;;;4939928;29;20043;-81
2023/11/18 11:47:02;;;;;;;73.13;40.67;;;;;;;;;;4921665;29;20374;-79
2023/11/18 11:49:48;;;;;;;67.82;37.70;;;;;;;;;;4939368;29;20506;-80
2023/11/18 11:52:33;;;;;;;77.82;41.83;;;;;;;;;;4939443;29;20411;-86
2023/11/18 12:09:09;;;;;;;82.53;50.83;;;;;;;;;;4937882;29;20475;-86
2023/11/18 12:11:46;;;;;;;64.80;35.00;;;;;;;;;;4913745;29;20051;-86
2023/11/18 12:17:08;;;;;;;48.83;25.75;;;;;;;;;;4920784;29;20051;-89
2023/11/18 12:19:47;;;;;;;71.10;38.88;;;;;;;;;;4921096;29;20405;-84
2023/11/18 12:22:24;;;;;;;56.70;31.00;;;;;;;;;;4922106;29;20075;-84
2023/11/18 12:24:59;;;;;;;58.53;32.50;;;;;;;;;;4921956;29;20529;-84
2023/11/18 12:28:03;;;;;;;61.58;32.80;;;;;;;;;;4921363;29;20098;-84
2023/11/18 12:30:37;;;;;;;71.28;35.97;;;;;;;;;;4920692;29;20056;-85
2023/11/18 12:33:18;;;;;;;64.97;37.97;;;;;;;;;;4920716;29;20052;-88
2023/11/18 12:35:51;;;;;;;46.70;24.48;;;;;;;;;;4938383;29;20055;-85
2023/11/18 12:38:45;;;;;;;48.15;25.00;;;;;;;;;;4920597;29;20055;-83
2023/11/18 12:45:44;;;;;;;37.70;19.55;;;;;;;;;;4938856;29;20047;-82
2023/11/18 12:48:15;;;;;;;30.10;17.33;;;;;;;;;;4920384;29;20050;-87
2023/11/18 12:50:46;;;;;;;30.35;18.48;;;;;;;;;;4921201;29;20060;-85
2023/11/18 12:53:18;;;;;;;27.45;14.65;;;;;;;;;;4920803;29;20056;-86
2023/11/18 13:56:04;;;;;;;6.55;2.97;;;;;;;;;;4844988;29;20057;-86
2023/11/18 13:58:40;;;;;;;4.78;2.03;;;;;;;;;;4840930;29;20045;-84
2023/11/18 14:01:14;;;;;;;5.05;2.25;;;;;;;;;;4828037;29;20061;-84
2023/11/18 14:03:47;;;;;;;10.43;2.92;;;;;;;;;;4904184;29;20052;-86
2023/11/18 14:06:22;;;;;;;43.35;13.88;;;;;;;;;;4921247;29;20050;-85
2023/11/18 14:08:53;;;;;;;8.40;3.15;;;;;;;;;;4920426;29;20052;-86
2023/11/18 14:11:24;;;;;;;6.93;2.78;;;;;;;;;;4920360;29;20043;-84
2023/11/18 14:13:55;;;;;;;8.77;2.80;;;;;;;;;;4921115;29;20082;-87
2023/11/18 14:16:26;;;;;;;6.93;3.33;;;;;;;;;;4919350;29;20048;-86
2023/11/18 14:18:56;;;;;;;4.65;2.15;;;;;;;;;;4920394;29;20050;-86
2023/11/18 14:21:28;;;;;;;6.15;1.83;;;;;;;;;;4919450;29;20521;-86
2023/11/18 14:24:02;;;;;;;4.53;1.73;;;;;;;;;;4937064;29;20048;-85
2023/11/18 14:58:23;;;;;;;;;;;;;;;;;;4940861;29;20390;-85
2023/11/18 15:00:56;;;;;;;3.80;1.75;;;;;;;;;;4918236;29;19923;-85
2023/11/18 15:03:27;;;;;;;4.80;1.92;;;;;;;;;;4920741;29;20044;-86
2023/11/18 15:26:21;;;;;;;4.38;1.70;;;;;;;;;;4896382;29;20464;-86
2023/11/18 15:47:09;;;;;;;6.05;1.73;;;;;;;;;;4865060;27;20056;-85
2023/11/18 15:49:41;;;;;;;5.70;2.00;;;;;;;;;;4897848;29;20481;-86
2023/11/18 15:52:12;;;;;;;6.38;2.00;;;;;;;;;;4897866;29;20052;-85
2023/11/18 15:54:43;;;;;;;5.40;2.30;;;;;;;;;;4880490;29;20049;-86
2023/11/18 15:57:13;;;;;;;4.85;1.90;;;;;;;;;;4880821;29;20068;-88
2023/11/18 15:59:46;;;;;;;3.65;1.38;;;;;;;;;;4881349;29;20057;-85
2023/11/18 16:02:17;;;;;;;5.25;1.70;;;;;;;;;;4897809;29;20391;-83
2023/11/18 16:04:48;;;;;;;9.82;3.08;;;;;;;;;;4881508;29;20075;-83
2023/11/18 16:07:18;;;;;;;4.85;1.83;;;;;;;;;;4896104;29;20057;-84
2023/11/18 16:09:50;;;;;;;7.55;2.50;;;;;;;;;;4896365;29;20404;-83
2023/11/18 16:12:20;;;;;;;7.15;2.33;;;;;;;;;;4877618;29;20052;-86
2023/11/18 16:14:50;;;;;;;4.10;1.90;;;;;;;;;;4897576;29;20045;-84
2023/11/18 16:17:21;;;;;;;3.83;1.88;;;;;;;;;;4896183;29;20056;-84
2023/11/18 16:19:52;;;;;;;6.53;2.92;;;;;;;;;;4897445;29;20079;-83
2023/11/18 16:22:22;;;;;;;4.32;2.05;;;;;;;;;;4881431;29;20060;-86
2023/11/18 16:24:52;;;;;;;3.90;1.63;;;;;;;;;;4900030;29;20078;-85
2023/11/18 16:27:22;;;;;;;3.88;1.75;;;;;;;;;;4901174;29;20419;-82
2023/11/18 16:29:52;;;;;;;5.57;2.03;;;;;;;;;;4883608;29;20060;-83
2023/11/18 16:32:23;;;;;;;5.18;2.10;;;;;;;;;;4901214;29;20095;-86
2023/11/18 16:34:54;;;;;;;4.45;2.15;;;;;;;;;;4900524;29;20053;-82
2023/11/18 16:37:24;;;;;;;4.93;2.03;;;;;;;;;;4900648;29;20052;-83
2023/11/18 16:39:54;;;;;;;4.43;1.95;;;;;;;;;;4900864;29;20055;-83
2023/11/18 16:42:28;;;;;;;6.20;2.22;;;;;;;;;;4899322;29;20049;-82
2023/11/18 16:45:00;;;;;;;5.28;2.08;;;;;;;;;;4900630;29;20048;-83
2023/11/18 16:47:30;;;;;;;5.03;1.83;;;;;;;;;;4898487;29;20159;-82
2023/11/18 16:50:00;;;;;;;4.65;1.52;;;;;;;;;;4900724;29;20381;-83
2023/11/18 16:52:32;;;;;;;4.68;1.63;;;;;;;;;;4882920;29;20057;-83
2023/11/18 16:55:04;;;;;;;5.68;1.77;;;;;;;;;;4883637;29;20052;-83
2023/11/18 16:57:35;;;;;;;4.97;1.73;;;;;;;;;;4900532;29;20044;-83
2023/11/18 17:00:22;;;;;;;4.50;1.65;;;;;;;;;;4900677;29;20162;-83
2023/11/18 17:02:56;;;;;;;4.93;1.42;;;;;;;;;;4900247;29;20424;-85
2023/11/18 17:05:28;;;;;;;4.28;1.67;;;;;;;;;;4884122;29;20052;-84
2023/11/18 17:08:01;;;;;;;4.00;1.80;;;;;;;;;;4900568;29;20048;-85
2023/11/18 17:10:33;;;;;;;4.88;1.80;;;;;;;;;;4884318;29;20056;-85
2023/11/18 17:13:06;;;;;;;5.15;1.90;;;;;;;;;;4867011;29;20178;-85
2023/11/18 17:15:36;;;;;;;6.13;1.63;;;;;;;;;;4883758;29;20040;-86
2023/11/18 17:18:07;;;;;;;4.13;1.63;;;;;;;;;;4897783;29;20056;-85
2023/11/18 17:20:38;;;;;;;5.65;2.15;;;;;;;;;;4883715;29;20056;-88
2023/11/18 17:23:08;;;;;;;6.53;2.40;;;;;;;;;;4898529;29;20059;-85
2023/11/18 17:25:38;;;;;;;3.55;1.77;;;;;;;;;;4882387;29;20526;-87
2023/11/18 17:28:11;;;;;;;4.93;1.83;;;;;;;;;;4884126;29;20045;-89
2023/11/18 17:30:44;;;;;;;6.22;2.13;;;;;;;;;;4899722;29;20059;-86
2023/11/18 17:33:15;;;;;;;4.28;1.63;;;;;;;;;;4882109;29;20145;-84
2023/11/18 17:35:46;;;;;;;5.00;1.73;;;;;;;;;;4899860;29;20049;-88
2023/11/18 17:38:16;;;;;;;5.78;1.73;;;;;;;;;;4882229;29;20052;-84
2023/11/18 17:40:47;;;;;;;5.75;2.15;;;;;;;;;;4883028;29;20055;-84
2023/11/18 17:43:17;;;;;;;8.43;2.20;;;;;;;;;;4899244;29;20099;-84
2023/11/18 17:45:48;;;;;;;4.82;2.05;;;;;;;;;;4881899;29;20064;-83
2023/11/18 17:48:18;;;;;;;7.47;2.60;;;;;;;;;;4898580;29;20048;-84
2023/11/18 17:50:52;;;;;;;6.93;2.15;;;;;;;;;;4881565;29;20060;-84
2023/11/18 17:53:24;;;;;;;5.82;2.83;;;;;;;;;;4897780;29;20041;-84
2023/11/18 17:55:56;;;;;;;7.43;2.70;;;;;;;;;;4865203;29;20052;-84
2023/11/18 17:58:28;;;;;;;6.82;2.33;;;;;;;;;;4893558;29;20064;-86
2023/11/18 18:01:01;;;;;;;5.80;2.20;;;;;;;;;;4872744;29;20393;-87
2023/11/18 18:03:33;;;;;;;4.18;1.70;;;;;;;;;;4875439;29;20052;-86
2023/11/18 18:06:08;;;;;;;3.83;1.88;;;;;;;;;;4879859;29;20056;-85
2023/11/18 18:08:39;;;;;;;5.35;1.80;;;;;;;;;;4868988;29;20052;-86
2023/11/18 18:11:11;;;;;;;;;;;;;;;;;;4903123;29;20509;-87
2023/11/18 18:13:41;;;;;;;4.22;1.45;;;;;;;;;;4882811;29;19938;-86